sensor_id;sensor_type;location;lat;lon;timestamp;pressure;altitude;pressure_sealevel;temperature;humidity
11499;BME280;5806;48.748;9.278;2023-05-21T00:02:04;101061.47;;;13.91;73.45
11499;BME280;5806;48.748;9.278;2023-05-21T00:04:33;101056.28;;;13.92;73.32
11499;BME280;5806;48.748;9.278;2023-05-21T00:07:01;101052.97;;;13.93;73.58
11499;BME280;5806;48.748;9.278;2023-05-21T00:09:29;101055.19;;;13.93;73.42
11499;BME280;5806;48.748;9.278;2023-05-21T00:11:57;101058.97;;;13.90;73.40
11499;BME280;5806;48.748;9.278;2023-05-21T00:14:24;101053.70;;;13.86;73.82
11499;BME280;5806;48.748;9.278;2023-05-21T00:16:52;101049.02;;;13.84;73.85
11499;BME280;5806;48.748;9.278;2023-05-21T00:19:19;101042.64;;;13.81;74.17
11499;BME280;5806;48.748;9.278;2023-05-21T00:21:47;101039.92;;;13.83;73.91
11499;BME280;5806;48.748;9.278;2023-05-21T00:24:15;101040.09;;;13.74;74.00
11499;BME280;5806;48.748;9.278;2023-05-21T00:26:42;101039.86;;;13.78;74.12
11499;BME280;5806;48.748;9.278;2023-05-21T00:29:10;101033.22;;;13.74;74.24
11499;BME280;5806;48.748;9.278;2023-05-21T00:31:37;101029.15;;;13.79;74.40
11499;BME280;5806;48.748;9.278;2023-05-21T00:34:05;101025.59;;;13.79;74.08
11499;BME280;5806;48.748;9.278;2023-05-21T00:36:32;101028.92;;;13.83;74.04
11499;BME280;5806;48.748;9.278;2023-05-21T00:39:00;101021.69;;;13.75;74.35
11499;BME280;5806;48.748;9.278;2023-05-21T00:41:29;100990.88;;;13.54;74.55
11499;BME280;5806;48.748;9.278;2023-05-21T00:43:56;101020.59;;;13.76;74.50
11499;BME280;5806;48.748;9.278;2023-05-21T00:46:25;101017.81;;;13.73;74.58
11499;BME280;5806;48.748;9.278;2023-05-21T00:48:55;101019.75;;;13.75;74.84
11499;BME280;5806;48.748;9.278;2023-05-21T00:51:25;101016.27;;;13.82;74.39
11499;BME280;5806;48.748;9.278;2023-05-21T00:53:54;101012.06;;;13.75;74.66
11499;BME280;5806;48.748;9.278;2023-05-21T00:56:24;100973.30;;;13.52;74.84
11499;BME280;5806;48.748;9.278;2023-05-21T00:58:54;101012.99;;;13.83;74.43
11499;BME280;5806;48.748;9.278;2023-05-21T01:01:25;100984.62;;;13.58;74.73
11499;BME280;5806;48.748;9.278;2023-05-21T01:03:53;101006.87;;;13.78;74.44
11499;BME280;5806;48.748;9.278;2023-05-21T01:06:23;101009.82;;;13.72;75.13
11499;BME280;5806;48.748;9.278;2023-05-21T01:08:50;101009.32;;;13.75;74.40
11499;BME280;5806;48.748;9.278;2023-05-21T01:11:19;101007.33;;;13.70;75.20
11499;BME280;5806;48.748;9.278;2023-05-21T01:13:47;101006.87;;;13.78;74.60
11499;BME280;5806;48.748;9.278;2023-05-21T01:16:16;101002.42;;;13.72;75.33
11499;BME280;5806;48.748;9.278;2023-05-21T01:18:44;101005.78;;;13.79;74.89
11499;BME280;5806;48.748;9.278;2023-05-21T01:21:12;101003.11;;;13.84;74.80
11499;BME280;5806;48.748;9.278;2023-05-21T01:23:41;101006.37;;;13.81;75.00
11499;BME280;5806;48.748;9.278;2023-05-21T01:26:09;101007.23;;;13.84;74.77
11499;BME280;5806;48.748;9.278;2023-05-21T01:28:38;101000.05;;;13.83;74.48
11499;BME280;5806;48.748;9.278;2023-05-21T01:31:25;101004.38;;;13.77;74.93
11499;BME280;5806;48.748;9.278;2023-05-21T01:33:40;101003.03;;;13.79;74.68
11499;BME280;5806;48.748;9.278;2023-05-21T01:36:16;101000.28;;;13.79;74.89
11499;BME280;5806;48.748;9.278;2023-05-21T01:38:51;100996.69;;;13.76;75.05
11499;BME280;5806;48.748;9.278;2023-05-21T01:41:16;100995.31;;;13.76;74.77
11499;BME280;5806;48.748;9.278;2023-05-21T01:43:45;100988.16;;;13.78;74.48
11499;BME280;5806;48.748;9.278;2023-05-21T01:46:16;100990.38;;;13.78;74.57
11499;BME280;5806;48.748;9.278;2023-05-21T01:48:44;100992.57;;;13.76;74.37
11499;BME280;5806;48.748;9.278;2023-05-21T01:51:12;100987.52;;;13.68;74.91
11499;BME280;5806;48.748;9.278;2023-05-21T01:53:40;100990.27;;;13.68;74.93
11499;BME280;5806;48.748;9.278;2023-05-21T01:56:08;100989.13;;;13.64;75.00
11499;BME280;5806;48.748;9.278;2023-05-21T01:58:36;100960.03;;;13.47;75.25
11499;BME280;5806;48.748;9.278;2023-05-21T02:01:04;100990.41;;;13.59;75.42
11499;BME280;5806;48.748;9.278;2023-05-21T02:03:31;100990.75;;;13.63;75.29
11499;BME280;5806;48.748;9.278;2023-05-21T02:06:00;100986.88;;;13.61;75.27
11499;BME280;5806;48.748;9.278;2023-05-21T02:08:28;100995.40;;;13.62;75.83
11499;BME280;5806;48.748;9.278;2023-05-21T02:10:56;100992.38;;;13.61;75.57
11499;BME280;5806;48.748;9.278;2023-05-21T02:13:24;100986.03;;;13.61;75.35
11499;BME280;5806;48.748;9.278;2023-05-21T02:15:51;100990.66;;;13.58;75.63
11499;BME280;5806;48.748;9.278;2023-05-21T02:18:20;100993.75;;;13.61;75.75
11499;BME280;5806;48.748;9.278;2023-05-21T02:20:50;100988.53;;;13.62;75.67
11499;BME280;5806;48.748;9.278;2023-05-21T02:23:17;100989.56;;;13.56;75.59
11499;BME280;5806;48.748;9.278;2023-05-21T02:25:45;100989.56;;;13.56;75.68
11499;BME280;5806;48.748;9.278;2023-05-21T02:28:12;100995.31;;;13.55;75.77
11499;BME280;5806;48.748;9.278;2023-05-21T02:30:41;100989.48;;;13.51;75.89
11499;BME280;5806;48.748;9.278;2023-05-21T02:33:08;100990.32;;;13.52;76.05
11499;BME280;5806;48.748;9.278;2023-05-21T02:35:37;100990.88;;;13.54;76.20
11499;BME280;5806;48.748;9.278;2023-05-21T02:38:05;100989.56;;;13.56;75.92
11499;BME280;5806;48.748;9.278;2023-05-21T02:40:34;100989.63;;;13.61;75.69
11499;BME280;5806;48.748;9.278;2023-05-21T02:43:02;100981.12;;;13.63;75.53
11499;BME280;5806;48.748;9.278;2023-05-21T02:45:29;100985.08;;;13.50;76.25
11499;BME280;5806;48.748;9.278;2023-05-21T02:47:58;100981.32;;;13.56;76.10
11499;BME280;5806;48.748;9.278;2023-05-21T02:50:25;100983.70;;;13.50;76.39
11499;BME280;5806;48.748;9.278;2023-05-21T02:52:53;100982.61;;;13.51;76.45
11499;BME280;5806;48.748;9.278;2023-05-21T02:55:30;100966.03;;;13.44;76.33
11499;BME280;5806;48.748;9.278;2023-05-21T02:57:57;100973.55;;;13.51;76.35
11499;BME280;5806;48.748;9.278;2023-05-21T03:00:25;100975.20;;;13.52;76.22
11499;BME280;5806;48.748;9.278;2023-05-21T03:02:52;100974.08;;;13.50;76.31
11499;BME280;5806;48.748;9.278;2023-05-21T03:05:20;100973.18;;;13.45;76.51
11499;BME280;5806;48.748;9.278;2023-05-21T03:07:47;100969.31;;;13.43;76.89
11499;BME280;5806;48.748;9.278;2023-05-21T03:10:15;100970.16;;;13.44;76.33
11499;BME280;5806;48.748;9.278;2023-05-21T03:12:43;100973.16;;;13.42;76.37
11499;BME280;5806;48.748;9.278;2023-05-21T03:15:12;100961.42;;;13.28;77.59
11499;BME280;5806;48.748;9.278;2023-05-21T03:17:42;100963.03;;;13.45;77.22
11499;BME280;5806;48.748;9.278;2023-05-21T03:20:10;100960.53;;;13.44;76.85
11499;BME280;5806;48.748;9.278;2023-05-21T03:22:39;100962.75;;;13.44;76.65
11499;BME280;5806;48.748;9.278;2023-05-21T03:25:07;100955.27;;;13.40;76.62
11499;BME280;5806;48.748;9.278;2023-05-21T03:27:35;100958.83;;;13.38;76.88
11499;BME280;5806;48.748;9.278;2023-05-21T03:30:03;100954.14;;;13.38;76.84
11499;BME280;5806;48.748;9.278;2023-05-21T03:32:31;100956.66;;;13.42;76.95
11499;BME280;5806;48.748;9.278;2023-05-21T03:35:04;100956.86;;;13.36;76.67
11499;BME280;5806;48.748;9.278;2023-05-21T03:37:31;100958.42;;;13.29;77.32
11499;BME280;5806;48.748;9.278;2023-05-21T03:40:01;100963.20;;;13.36;77.42
11499;BME280;5806;48.748;9.278;2023-05-21T03:42:28;100971.44;;;13.36;77.20
11499;BME280;5806;48.748;9.278;2023-05-21T03:44:56;100967.09;;;13.40;76.77
11499;BME280;5806;48.748;9.278;2023-05-21T03:47:23;100966.84;;;13.42;76.92
11499;BME280;5806;48.748;9.278;2023-05-21T03:49:51;100961.29;;;13.39;76.96
11499;BME280;5806;48.748;9.278;2023-05-21T03:52:19;100967.06;;;13.38;76.86
11499;BME280;5806;48.748;9.278;2023-05-21T03:54:46;100962.66;;;13.39;76.51
11499;BME280;5806;48.748;9.278;2023-05-21T03:57:14;100957.95;;;13.35;76.60
11499;BME280;5806;48.748;9.278;2023-05-21T03:59:41;100952.23;;;13.39;76.58
11499;BME280;5806;48.748;9.278;2023-05-21T04:02:08;100959.16;;;13.44;76.75
11499;BME280;5806;48.748;9.278;2023-05-21T04:04:36;100951.95;;;13.38;76.88
11499;BME280;5806;48.748;9.278;2023-05-21T04:07:04;100951.36;;;13.36;76.74
11499;BME280;5806;48.748;9.278;2023-05-21T04:09:33;100950.27;;;13.37;76.85
11499;BME280;5806;48.748;9.278;2023-05-21T04:12:00;100949.02;;;13.44;76.73
11499;BME280;5806;48.748;9.278;2023-05-21T04:14:30;100958.83;;;13.38;76.79
11499;BME280;5806;48.748;9.278;2023-05-21T04:16:57;100956.83;;;13.33;77.11
11499;BME280;5806;48.748;9.278;2023-05-21T04:19:25;100959.16;;;13.44;76.93
11499;BME280;5806;48.748;9.278;2023-05-21T04:21:53;100960.88;;;13.50;76.83
11499;BME280;5806;48.748;9.278;2023-05-21T04:24:20;100954.00;;;13.50;76.73
11499;BME280;5806;48.748;9.278;2023-05-21T04:26:48;100957.17;;;13.39;77.17
11499;BME280;5806;48.748;9.278;2023-05-21T04:29:16;100956.69;;;13.45;76.45
11499;BME280;5806;48.748;9.278;2023-05-21T04:31:47;100955.66;;;13.48;77.13
11499;BME280;5806;48.748;9.278;2023-05-21T04:34:15;100959.16;;;13.44;76.97
11499;BME280;5806;48.748;9.278;2023-05-21T04:36:44;100958.35;;;13.46;77.30
11499;BME280;5806;48.748;9.278;2023-05-21T04:39:11;100954.09;;;13.55;76.73
11499;BME280;5806;48.748;9.278;2023-05-21T04:41:41;100956.41;;;13.44;76.72
11499;BME280;5806;48.748;9.278;2023-05-21T04:44:09;100956.44;;;13.46;76.55
11499;BME280;5806;48.748;9.278;2023-05-21T04:46:39;100957.62;;;13.53;76.51
11499;BME280;5806;48.748;9.278;2023-05-21T04:49:06;100964.52;;;13.55;76.82
11499;BME280;5806;48.748;9.278;2023-05-21T04:51:34;100968.08;;;13.53;76.58
11499;BME280;5806;48.748;9.278;2023-05-21T04:54:03;100961.72;;;13.50;76.74
11499;BME280;5806;48.748;9.278;2023-05-21T04:56:30;100965.05;;;13.52;76.78
11499;BME280;5806;48.748;9.278;2023-05-21T04:58:58;100963.71;;;13.55;76.87
11499;BME280;5806;48.748;9.278;2023-05-21T05:01:26;100963.73;;;13.57;77.20
11499;BME280;5806;48.748;9.278;2023-05-21T05:03:55;100970.13;;;13.63;76.69
11499;BME280;5806;48.748;9.278;2023-05-21T05:06:24;100965.70;;;13.62;76.92
11499;BME280;5806;48.748;9.278;2023-05-21T05:08:51;100971.20;;;13.62;76.89
11499;BME280;5806;48.748;9.278;2023-05-21T05:11:19;100969.30;;;13.62;77.34
11499;BME280;5806;48.748;9.278;2023-05-21T05:13:47;100960.40;;;13.55;76.98
11499;BME280;5806;48.748;9.278;2023-05-21T05:16:15;100978.96;;;13.67;77.10
11499;BME280;5806;48.748;9.278;2023-05-21T05:18:43;100971.59;;;13.70;77.22
11499;BME280;5806;48.748;9.278;2023-05-21T05:21:10;100971.34;;;13.72;77.22
11499;BME280;5806;48.748;9.278;2023-05-21T05:23:38;100966.68;;;13.72;77.63
11499;BME280;5806;48.748;9.278;2023-05-21T05:26:05;100957.44;;;13.83;76.64
11499;BME280;5806;48.748;9.278;2023-05-21T05:28:33;100960.78;;;13.85;76.77
11499;BME280;5806;48.748;9.278;2023-05-21T05:31:02;100954.41;;;13.82;77.44
11499;BME280;5806;48.748;9.278;2023-05-21T05:33:30;100955.81;;;13.85;77.57
11499;BME280;5806;48.748;9.278;2023-05-21T05:35:57;100962.45;;;13.89;77.37
11499;BME280;5806;48.748;9.278;2023-05-21T05:38:25;100962.25;;;13.95;77.11
11499;BME280;5806;48.748;9.278;2023-05-21T05:40:53;100963.37;;;13.97;77.11
11499;BME280;5806;48.748;9.278;2023-05-21T05:43:20;100955.14;;;13.99;77.11
11499;BME280;5806;48.748;9.278;2023-05-21T05:45:47;100955.48;;;14.03;76.98
11499;BME280;5806;48.748;9.278;2023-05-21T05:48:15;100956.59;;;14.04;77.11
11499;BME280;5806;48.748;9.278;2023-05-21T05:50:42;100949.13;;;14.02;77.08
11499;BME280;5806;48.748;9.278;2023-05-21T05:53:10;100951.39;;;14.08;77.01
11499;BME280;5806;48.748;9.278;2023-05-21T05:55:39;100958.31;;;14.13;76.90
11499;BME280;5806;48.748;9.278;2023-05-21T05:58:07;100954.45;;;14.11;76.65
11499;BME280;5806;48.748;9.278;2023-05-21T06:00:34;100948.67;;;14.10;76.65
11499;BME280;5806;48.748;9.278;2023-05-21T06:03:02;100946.47;;;14.12;76.77
11499;BME280;5806;48.748;9.278;2023-05-21T06:05:29;100946.00;;;14.20;76.41
11499;BME280;5806;48.748;9.278;2023-05-21T06:07:57;100943.81;;;14.20;76.97
11499;BME280;5806;48.748;9.278;2023-05-21T06:10:24;100938.11;;;14.24;76.61
11499;BME280;5806;48.748;9.278;2023-05-21T06:12:51;100944.19;;;14.28;76.96
11499;BME280;5806;48.748;9.278;2023-05-21T06:15:19;100943.52;;;14.43;76.12
11499;BME280;5806;48.748;9.278;2023-05-21T06:17:48;100946.84;;;14.47;75.77
11499;BME280;5806;48.748;9.278;2023-05-21T06:20:16;100945.23;;;14.54;75.00
11499;BME280;5806;48.748;9.278;2023-05-21T06:22:43;100943.03;;;14.51;75.58
11499;BME280;5806;48.748;9.278;2023-05-21T06:25:10;100946.09;;;14.57;75.21
11499;BME280;5806;48.748;9.278;2023-05-21T06:27:38;100948.87;;;14.59;75.37
11499;BME280;5806;48.748;9.278;2023-05-21T06:30:06;100948.66;;;14.68;74.68
11499;BME280;5806;48.748;9.278;2023-05-21T06:32:33;100941.48;;;14.65;74.87
11499;BME280;5806;48.748;9.278;2023-05-21T06:35:01;100945.08;;;14.65;75.24
11499;BME280;5806;48.748;9.278;2023-05-21T06:37:28;100938.48;;;14.69;75.03
11499;BME280;5806;48.748;9.278;2023-05-21T06:39:56;100944.77;;;14.64;76.18
11499;BME280;5806;48.748;9.278;2023-05-21T06:42:23;100937.64;;;14.68;76.06
11499;BME280;5806;48.748;9.278;2023-05-21T06:44:50;100947.34;;;14.73;76.08
11499;BME280;5806;48.748;9.278;2023-05-21T06:47:18;100938.37;;;14.91;75.00
11499;BME280;5806;48.748;9.278;2023-05-21T06:49:46;100937.88;;;14.99;74.21
11499;BME280;5806;48.748;9.278;2023-05-21T06:52:13;100940.91;;;15.00;73.99
11499;BME280;5806;48.748;9.278;2023-05-21T06:54:41;100945.07;;;15.07;74.55
11499;BME280;5806;48.748;9.278;2023-05-21T06:57:08;100941.80;;;15.13;73.54
11499;BME280;5806;48.748;9.278;2023-05-21T06:59:35;100950.99;;;15.26;73.47
11499;BME280;5806;48.748;9.278;2023-05-21T07:02:03;100949.06;;;15.29;72.22
11499;BME280;5806;48.748;9.278;2023-05-21T07:04:30;100958.80;;;15.39;72.09
11499;BME280;5806;48.748;9.278;2023-05-21T07:07:00;100963.49;;;15.43;72.24
11499;BME280;5806;48.748;9.278;2023-05-21T07:09:29;100963.84;;;15.57;72.59
11499;BME280;5806;48.748;9.278;2023-05-21T07:11:57;100963.49;;;15.43;72.99
11499;BME280;5806;48.748;9.278;2023-05-21T07:14:25;100964.88;;;15.43;71.86
11499;BME280;5806;48.748;9.278;2023-05-21T07:16:52;100960.28;;;15.61;71.63
11499;BME280;5806;48.748;9.278;2023-05-21T07:19:20;100964.15;;;15.60;72.57
11499;BME280;5806;48.748;9.278;2023-05-21T07:21:48;100958.90;;;15.59;72.50
11499;BME280;5806;48.748;9.278;2023-05-21T07:24:16;100960.55;;;15.62;72.18
11499;BME280;5806;48.748;9.278;2023-05-21T07:26:43;100963.91;;;15.72;72.47
11499;BME280;5806;48.748;9.278;2023-05-21T07:29:11;100954.27;;;15.82;72.45
11499;BME280;5806;48.748;9.278;2023-05-21T07:31:38;100954.84;;;15.79;71.44
11499;BME280;5806;48.748;9.278;2023-05-21T07:34:06;100957.34;;;15.88;71.84
11499;BME280;5806;48.748;9.278;2023-05-21T07:36:33;100955.70;;;15.89;71.16
11499;BME280;5806;48.748;9.278;2023-05-21T07:39:01;100952.41;;;15.95;70.50
11499;BME280;5806;48.748;9.278;2023-05-21T07:41:29;100948.54;;;15.93;71.34
11499;BME280;5806;48.748;9.278;2023-05-21T07:43:56;100958.20;;;16.03;70.34
11499;BME280;5806;48.748;9.278;2023-05-21T07:46:24;100955.75;;;16.12;69.72
11499;BME280;5806;48.748;9.278;2023-05-21T07:48:51;100959.09;;;16.21;69.97
11499;BME280;5806;48.748;9.278;2023-05-21T07:51:18;100954.95;;;16.24;69.41
11499;BME280;5806;48.748;9.278;2023-05-21T07:53:46;100958.55;;;16.32;70.09
11499;BME280;5806;48.748;9.278;2023-05-21T07:56:13;100956.33;;;16.26;68.78
11499;BME280;5806;48.748;9.278;2023-05-21T07:58:41;100958.25;;;16.23;68.99
11499;BME280;5806;48.748;9.278;2023-05-21T08:01:10;100962.95;;;16.28;69.22
11499;BME280;5806;48.748;9.278;2023-05-21T08:03:38;100952.76;;;16.33;69.53
11499;BME280;5806;48.748;9.278;2023-05-21T08:06:05;100958.01;;;16.35;69.63
11499;BME280;5806;48.748;9.278;2023-05-21T08:08:33;100956.63;;;16.35;68.85
11499;BME280;5806;48.748;9.278;2023-05-21T08:11:00;100959.39;;;16.40;68.96
11499;BME280;5806;48.748;9.278;2023-05-21T08:13:28;100957.70;;;16.36;70.01
11499;BME280;5806;48.748;9.278;2023-05-21T08:15:55;100961.58;;;16.33;70.01
11499;BME280;5806;48.748;9.278;2023-05-21T08:18:23;100965.18;;;16.31;69.46
11499;BME280;5806;48.748;9.278;2023-05-21T08:20:51;100965.72;;;16.38;69.17
11499;BME280;5806;48.748;9.278;2023-05-21T08:23:18;100965.48;;;16.42;68.95
11499;BME280;5806;48.748;9.278;2023-05-21T08:25:46;100963.56;;;16.42;69.51
11499;BME280;5806;48.748;9.278;2023-05-21T08:28:13;100963.80;;;16.38;69.35
11499;BME280;5806;48.748;9.278;2023-05-21T08:30:41;100961.58;;;16.25;69.28
11499;BME280;5806;48.748;9.278;2023-05-21T08:33:08;100959.95;;;16.44;69.20
11499;BME280;5806;48.748;9.278;2023-05-21T08:35:36;100961.63;;;16.53;69.65
11499;BME280;5806;48.748;9.278;2023-05-21T08:38:03;100948.37;;;16.47;69.25
11499;BME280;5806;48.748;9.278;2023-05-21T08:40:31;100947.28;;;16.51;69.74
11499;BME280;5806;48.748;9.278;2023-05-21T08:42:59;100945.63;;;16.57;69.49
11499;BME280;5806;48.748;9.278;2023-05-21T08:45:29;100945.06;;;16.73;68.59
11499;BME280;5806;48.748;9.278;2023-05-21T08:47:57;100944.52;;;16.76;68.48
11499;BME280;5806;48.748;9.278;2023-05-21T08:50:26;100938.16;;;16.70;68.04
11499;BME280;5806;48.748;9.278;2023-05-21T08:52:54;100934.28;;;16.69;68.05
11499;BME280;5806;48.748;9.278;2023-05-21T08:55:23;100936.48;;;16.89;69.00
11499;BME280;5806;48.748;9.278;2023-05-21T08:57:53;100943.10;;;16.86;68.09
11499;BME280;5806;48.748;9.278;2023-05-21T09:00:20;100940.88;;;16.98;68.79
11499;BME280;5806;48.748;9.278;2023-05-21T09:02:50;100939.50;;;16.95;68.80
11499;BME280;5806;48.748;9.278;2023-05-21T09:05:20;100939.48;;;17.00;67.98
11499;BME280;5806;48.748;9.278;2023-05-21T09:08:05;100935.33;;;17.13;68.38
11499;BME280;5806;48.748;9.278;2023-05-21T09:10:28;100926.42;;;17.36;68.03
11499;BME280;5806;48.748;9.278;2023-05-21T09:12:57;100922.28;;;17.41;66.49
11499;BME280;5806;48.748;9.278;2023-05-21T09:15:25;100925.55;;;17.53;67.05
11499;BME280;5806;48.748;9.278;2023-05-21T09:17:53;100921.39;;;17.55;67.18
11499;BME280;5806;48.748;9.278;2023-05-21T09:20:24;100922.67;;;17.75;66.65
11499;BME280;5806;48.748;9.278;2023-05-21T09:22:53;100929.05;;;17.76;66.18
11499;BME280;5806;48.748;9.278;2023-05-21T09:25:23;100923.20;;;17.77;66.71
11499;BME280;5806;48.748;9.278;2023-05-21T09:27:55;100919.05;;;17.77;66.71
11499;BME280;5806;48.748;9.278;2023-05-21T09:30:22;100924.59;;;17.77;66.98
11499;BME280;5806;48.748;9.278;2023-05-21T09:32:57;100916.19;;;17.95;65.68
11499;BME280;5806;48.748;9.278;2023-05-21T09:35:46;100920.78;;;18.12;65.84
11499;BME280;5806;48.748;9.278;2023-05-21T09:38:13;100926.02;;;18.18;66.38
11499;BME280;5806;48.748;9.278;2023-05-21T09:40:44;100924.79;;;18.32;65.47
11499;BME280;5806;48.748;9.278;2023-05-21T09:43:15;100921.80;;;18.26;65.30
11499;BME280;5806;48.748;9.278;2023-05-21T09:45:53;100924.87;;;18.22;66.18
11499;BME280;5806;48.748;9.278;2023-05-21T09:48:38;100919.97;;;18.11;65.34
11499;BME280;5806;48.748;9.278;2023-05-21T09:53:56;100911.68;;;18.50;64.06
11499;BME280;5806;48.748;9.278;2023-05-21T09:56:29;100906.78;;;18.39;64.60
11499;BME280;5806;48.748;9.278;2023-05-21T09:58:56;100910.77;;;18.59;63.84
11499;BME280;5806;48.748;9.278;2023-05-21T10:01:26;100905.64;;;18.43;64.77
11499;BME280;5806;48.748;9.278;2023-05-21T10:03:58;100905.56;;;18.53;66.17
11499;BME280;5806;48.748;9.278;2023-05-21T10:06:30;100903.73;;;18.69;65.25
11499;BME280;5806;48.748;9.278;2023-05-21T10:09:00;100894.03;;;18.69;66.28
11499;BME280;5806;48.748;9.278;2023-05-21T10:11:30;100892.16;;;18.91;63.68
11499;BME280;5806;48.748;9.278;2023-05-21T10:13:59;100894.27;;;19.01;63.38
11499;BME280;5806;48.748;9.278;2023-05-21T10:16:29;100884.50;;;19.06;64.12
11499;BME280;5806;48.748;9.278;2023-05-21T10:18:58;100880.63;;;19.07;64.14
11499;BME280;5806;48.748;9.278;2023-05-21T10:21:26;100878.08;;;18.87;63.97
11499;BME280;5806;48.748;9.278;2023-05-21T10:23:56;100871.70;;;19.10;63.68
11499;BME280;5806;48.748;9.278;2023-05-21T10:26:24;100870.63;;;19.06;62.52
11499;BME280;5806;48.748;9.278;2023-05-21T10:28:52;100869.98;;;19.17;63.29
11499;BME280;5806;48.748;9.278;2023-05-21T10:31:22;100867.22;;;19.14;63.34
11499;BME280;5806;48.748;9.278;2023-05-21T10:33:51;100863.42;;;19.34;62.50
11499;BME280;5806;48.748;9.278;2023-05-21T10:36:20;100862.53;;;19.60;62.25
11499;BME280;5806;48.748;9.278;2023-05-21T10:38:48;100850.63;;;19.57;62.60
11499;BME280;5806;48.748;9.278;2023-05-21T10:41:17;100855.34;;;19.56;63.38
11499;BME280;5806;48.748;9.278;2023-05-21T10:44:18;100845.34;;;19.58;64.30
11499;BME280;5806;48.748;9.278;2023-05-21T10:49:49;100840.52;;;19.66;63.48
11499;BME280;5806;48.748;9.278;2023-05-21T11:00:24;100836.72;;;19.59;62.82
11499;BME280;5806;48.748;9.278;2023-05-21T11:02:53;100834.59;;;19.72;61.98
11499;BME280;5806;48.748;9.278;2023-05-21T11:05:55;100830.61;;;19.97;62.59
11499;BME280;5806;48.748;9.278;2023-05-21T11:08:30;100840.88;;;19.96;62.95
11499;BME280;5806;48.748;9.278;2023-05-21T11:10:59;100840.63;;;19.95;63.11
11499;BME280;5806;48.748;9.278;2023-05-21T11:13:28;100836.08;;;20.20;62.51
11499;BME280;5806;48.748;9.278;2023-05-21T11:16:01;100831.70;;;19.98;63.31
11499;BME280;5806;48.748;9.278;2023-05-21T11:21:05;100821.41;;;20.33;62.59
11499;BME280;5806;48.748;9.278;2023-05-21T11:26:26;100820.14;;;20.58;62.06
11499;BME280;5806;48.748;9.278;2023-05-21T11:29:07;100809.59;;;20.41;63.07
11499;BME280;5806;48.748;9.278;2023-05-21T11:31:35;100816.77;;;20.61;61.22
11499;BME280;5806;48.748;9.278;2023-05-21T11:34:22;100808.90;;;20.49;60.60
11499;BME280;5806;48.748;9.278;2023-05-21T11:39:49;100804.48;;;20.48;62.80
11499;BME280;5806;48.748;9.278;2023-05-21T11:42:34;100794.94;;;20.81;60.86
11499;BME280;5806;48.748;9.278;2023-05-21T11:45:02;100794.94;;;20.81;60.86
11499;BME280;5806;48.748;9.278;2023-05-21T11:47:30;100804.13;;;20.82;60.59
11499;BME280;5806;48.748;9.278;2023-05-21T11:50:00;100801.84;;;20.84;61.51
11499;BME280;5806;48.748;9.278;2023-05-21T11:52:29;100800.19;;;20.99;61.33
11499;BME280;5806;48.748;9.278;2023-05-21T11:54:58;100796.08;;;20.80;60.64
11499;BME280;5806;48.748;9.278;2023-05-21T11:57:27;100799.33;;;21.01;59.77
11499;BME280;5806;48.748;9.278;2023-05-21T11:59:59;100794.01;;;21.15;59.97
11499;BME280;5806;48.748;9.278;2023-05-21T12:02:33;100792.50;;;21.20;60.84
11499;BME280;5806;48.748;9.278;2023-05-21T12:04:56;100792.56;;;21.18;61.57
11499;BME280;5806;48.748;9.278;2023-05-21T12:07:27;100792.33;;;21.28;60.35
11499;BME280;5806;48.748;9.278;2023-05-21T12:09:58;100783.37;;;21.31;59.30
11499;BME280;5806;48.748;9.278;2023-05-21T12:12:26;100795.06;;;21.17;61.46
11499;BME280;5806;48.748;9.278;2023-05-21T12:14:54;100782.61;;;21.14;58.89
11499;BME280;5806;48.748;9.278;2023-05-21T12:17:24;100784.16;;;21.20;59.33
11499;BME280;5806;48.748;9.278;2023-05-21T12:19:54;100785.25;;;21.33;58.96
11499;BME280;5806;48.748;9.278;2023-05-21T12:22:25;100771.46;;;21.28;58.77
11499;BME280;5806;48.748;9.278;2023-05-21T12:24:54;100773.88;;;21.56;59.93
11499;BME280;5806;48.748;9.278;2023-05-21T12:27:23;100769.19;;;21.54;59.84
11499;BME280;5806;48.748;9.278;2023-05-21T12:29:53;100773.98;;;21.40;60.73
11499;BME280;5806;48.748;9.278;2023-05-21T12:32:21;100766.89;;;21.45;59.12
11499;BME280;5806;48.748;9.278;2023-05-21T12:34:50;100772.05;;;21.76;59.64
11499;BME280;5806;48.748;9.278;2023-05-21T12:37:28;100769.68;;;21.45;58.88
11499;BME280;5806;48.748;9.278;2023-05-21T12:40:00;100775.59;;;21.55;59.15
11499;BME280;5806;48.748;9.278;2023-05-21T12:42:31;100772.92;;;21.61;58.64
11499;BME280;5806;48.748;9.278;2023-05-21T12:45:10;100773.33;;;21.68;59.25
11499;BME280;5806;48.748;9.278;2023-05-21T12:47:30;100767.80;;;21.79;59.28
11499;BME280;5806;48.748;9.278;2023-05-21T12:49:59;100768.19;;;21.61;58.93
11499;BME280;5806;48.748;9.278;2023-05-21T12:52:28;100768.96;;;21.64;58.91
11499;BME280;5806;48.748;9.278;2023-05-21T12:54:59;100767.19;;;21.82;58.80
11499;BME280;5806;48.748;9.278;2023-05-21T12:57:34;100766.97;;;21.78;58.98
11499;BME280;5806;48.748;9.278;2023-05-21T13:00:04;100769.20;;;21.79;58.97
11499;BME280;5806;48.748;9.278;2023-05-21T13:02:33;100764.31;;;21.73;58.89
11499;BME280;5806;48.748;9.278;2023-05-21T13:05:14;100754.90;;;21.83;58.24
11499;BME280;5806;48.748;9.278;2023-05-21T13:07:45;100758.37;;;22.10;59.65
11499;BME280;5806;48.748;9.278;2023-05-21T13:10:13;100764.02;;;21.86;59.05
11499;BME280;5806;48.748;9.278;2023-05-21T13:12:43;100757.98;;;21.70;59.06
11499;BME280;5806;48.748;9.278;2023-05-21T13:15:11;100751.08;;;22.34;58.59
11499;BME280;5806;48.748;9.278;2023-05-21T13:17:38;100755.20;;;22.14;58.27
11499;BME280;5806;48.748;9.278;2023-05-21T13:20:18;100755.72;;;22.05;57.66
11499;BME280;5806;48.748;9.278;2023-05-21T13:22:43;100747.30;;;22.08;57.14
11499;BME280;5806;48.748;9.278;2023-05-21T13:25:14;100741.13;;;22.19;56.41
11499;BME280;5806;48.748;9.278;2023-05-21T13:27:43;100741.67;;;21.88;57.58
11499;BME280;5806;48.748;9.278;2023-05-21T13:30:11;100744.02;;;21.95;57.46
11499;BME280;5806;48.748;9.278;2023-05-21T13:32:40;100739.56;;;22.05;59.03